Time;durP1;ratioP1;P1;durP2;ratioP2;P2;SDS_P1;SDS_P2;PMS_P1;PMS_P2;Temp;Humidity;BMP_temperature;BMP_pressure;BME280_temperature;BME280_humidity;BME280_pressure;Samples;Min_cycle;Max_cycle;Signal;HPM_P1;HPM_P2
2022/04/26 03:37:39;;;;;;;16.85;9.23;;;7.60;99.90;;;;;;5010471;28;20042;-72
2022/04/26 03:40:05;;;;;;;15.85;9.32;;;7.60;99.90;;;;;;5012472;28;20046;-72
2022/04/26 03:42:31;;;;;;;14.05;8.20;;;7.70;99.90;;;;;;5006239;28;20041;-72
2022/04/26 03:44:56;;;;;;;15.82;9.50;;;7.60;99.90;;;;;;5030890;28;20481;-72
2022/04/26 03:47:22;;;;;;;17.17;9.40;;;7.60;99.90;;;;;;4996568;28;20073;-72
2022/04/26 03:49:48;;;;;;;16.70;9.25;;;7.50;99.90;;;;;;5012382;28;20042;-72
2022/04/26 03:52:14;;;;;;;14.07;9.25;;;7.50;99.90;;;;;;5012454;28;20042;-72
2022/04/26 03:54:39;;;;;;;19.08;9.50;;;7.50;99.90;;;;;;5002093;28;20411;-72
2022/04/26 03:57:06;;;;;;;18.75;9.98;;;7.50;99.90;;;;;;5023184;28;20088;-72
2022/04/26 03:59:31;;;;;;;15.30;8.45;;;7.40;99.90;;;;;;5012154;28;20125;-72
2022/04/26 04:01:57;;;;;;;20.02;8.88;;;7.50;99.90;;;;;;5012135;28;20149;-72
2022/04/26 04:04:23;;;;;;;17.42;9.40;;;7.40;99.90;;;;;;4995919;28;20082;-72
2022/04/26 04:06:48;;;;;;;14.75;8.95;;;7.30;99.90;;;;;;4995881;28;20029;-72
2022/04/26 04:09:14;;;;;;;13.15;7.90;;;7.40;99.90;;;;;;5015886;28;20038;-72
2022/04/26 04:11:39;;;;;;;17.58;8.90;;;7.40;99.90;;;;;;5012477;28;20050;-72
2022/04/26 04:14:05;;;;;;;16.02;9.32;;;7.40;99.90;;;;;;4996131;28;20038;-72
2022/04/26 04:16:30;;;;;;;15.40;8.98;;;7.40;99.90;;;;;;5012385;28;20560;-72
2022/04/26 04:21:40;;;;;;;16.65;8.73;;;7.40;99.90;;;;;;5012067;28;20046;-72
2022/04/26 04:24:06;;;;;;;15.73;8.40;;;7.50;99.90;;;;;;5022926;28;20034;-72
2022/04/26 04:26:31;;;;;;;16.08;8.02;;;7.40;99.90;;;;;;5013087;28;20453;-72
2022/04/26 04:28:57;;;;;;;19.88;9.13;;;7.50;99.90;;;;;;5012179;28;20037;-72
2022/04/26 04:31:22;;;;;;;17.55;8.68;;;7.50;99.90;;;;;;5011957;28;20088;-72
2022/04/26 04:33:48;;;;;;;14.93;8.05;;;7.40;99.90;;;;;;5011995;28;20096;-72
2022/04/26 04:36:14;;;;;;;16.13;7.97;;;7.50;99.90;;;;;;5011967;28;20088;-72
2022/04/26 04:38:40;;;;;;;13.68;7.28;;;7.50;99.90;;;;;;4995573;28;20042;-72
2022/04/26 04:41:06;;;;;;;15.82;8.00;;;7.60;99.90;;;;;;4995724;28;20056;-72
2022/04/26 04:43:32;;;;;;;16.23;7.75;;;7.60;99.90;;;;;;5011876;28;20084;-72
2022/04/26 04:45:57;;;;;;;13.38;7.63;;;7.70;99.90;;;;;;5012187;28;20061;-72
2022/04/26 04:48:23;;;;;;;15.55;6.95;;;7.70;99.90;;;;;;5014358;28;20501;-72
2022/04/26 04:50:49;;;;;;;15.02;7.20;;;7.70;99.90;;;;;;5015719;28;20172;-72
2022/04/26 04:53:18;;;;;;;15.32;7.32;;;7.60;99.90;;;;;;4999472;28;20034;-72
2022/04/26 04:55:44;;;;;;;14.88;6.50;;;7.60;99.90;;;;;;5015606;28;20049;-72
2022/04/26 04:58:09;;;;;;;13.25;6.53;;;7.70;99.90;;;;;;4999094;28;20042;-72
2022/04/26 05:00:35;;;;;;;13.43;6.43;;;7.80;99.90;;;;;;5015363;28;20177;-72
2022/04/26 05:03:01;;;;;;;12.85;5.85;;;7.70;99.90;;;;;;5015407;28;20075;-72
2022/04/26 05:05:26;;;;;;;12.57;5.80;;;7.80;99.90;;;;;;4999330;28;20088;-72
2022/04/26 05:07:52;;;;;;;15.10;6.50;;;7.80;99.90;;;;;;5015475;28;20046;-72
2022/04/26 05:10:18;;;;;;;14.48;5.95;;;7.80;99.90;;;;;;5015502;28;20124;-72
2022/04/26 05:12:44;;;;;;;11.35;5.70;;;7.80;99.90;;;;;;5015192;28;20052;-72
2022/04/26 05:15:10;;;;;;;11.45;5.90;;;7.80;99.90;;;;;;5015244;28;20490;-72
2022/04/26 05:17:35;;;;;;;12.10;5.15;;;7.90;99.90;;;;;;4998742;28;20487;-72
2022/04/26 05:20:01;;;;;;;10.35;4.90;;;8.00;99.90;;;;;;4998622;28;20128;-72
2022/04/26 05:22:27;;;;;;;12.95;6.10;;;8.00;99.90;;;;;;5015040;28;20038;-72
2022/04/26 05:24:58;;;;;;;14.85;5.95;;;8.10;99.90;;;;;;5029024;28;20045;-72
2022/04/26 05:27:30;;;;;;;12.00;5.50;;;8.10;99.90;;;;;;5014584;28;20037;-72
2022/04/26 05:29:56;;;;;;;14.77;5.53;;;8.10;99.90;;;;;;5016197;28;20079;-72
2022/04/26 05:32:27;;;;;;;9.38;5.25;;;8.20;99.90;;;;;;5016184;28;20038;-72
2022/04/26 05:34:58;;;;;;;12.07;5.40;;;8.20;99.90;;;;;;5019313;28;20068;-72
2022/04/26 05:37:25;;;;;;;12.07;5.18;;;8.20;99.90;;;;;;5015065;28;20037;-72
2022/04/26 05:39:50;;;;;;;13.02;5.68;;;8.30;99.90;;;;;;5014590;28;20077;-72
2022/04/26 05:42:16;;;;;;;11.77;5.45;;;8.40;99.90;;;;;;4998613;28;20072;-72
2022/04/26 05:44:42;;;;;;;12.68;5.57;;;8.50;99.90;;;;;;5014683;28;20084;-72
2022/04/26 05:47:08;;;;;;;15.63;5.38;;;8.60;99.90;;;;;;5014573;28;20092;-72
2022/04/26 05:49:35;;;;;;;12.43;5.28;;;8.60;99.90;;;;;;4998461;28;20057;-72
2022/04/26 05:52:01;;;;;;;12.13;4.95;;;8.60;99.90;;;;;;4998073;28;20038;-72
2022/04/26 05:54:27;;;;;;;13.20;4.88;;;8.60;99.90;;;;;;5013806;28;20046;-72
2022/04/26 05:56:53;;;;;;;12.57;4.97;;;8.60;99.90;;;;;;5012912;28;20125;-72
2022/04/26 05:59:20;;;;;;;10.23;4.40;;;8.60;99.90;;;;;;4997820;28;20045;-72
2022/04/26 06:01:46;;;;;;;12.73;4.40;;;8.70;99.90;;;;;;5023343;28;20037;-72
2022/04/26 06:04:11;;;;;;;12.05;4.85;;;8.70;99.90;;;;;;5017434;28;20120;-73
2022/04/26 06:06:37;;;;;;;13.13;4.57;;;8.70;99.90;;;;;;5004942;28;20247;-72
2022/04/26 06:09:03;;;;;;;10.25;4.63;;;8.80;99.90;;;;;;5033960;28;20466;-72
2022/04/26 06:11:29;;;;;;;10.18;4.47;;;8.80;99.90;;;;;;5015691;28;20043;-72
2022/04/26 06:13:55;;;;;;;12.30;4.50;;;8.90;99.90;;;;;;5014187;28;20128;-72
2022/04/26 06:16:20;;;;;;;10.02;4.20;;;8.90;99.90;;;;;;4998037;28;20073;-72
2022/04/26 06:18:46;;;;;;;12.38;4.20;;;9.00;99.90;;;;;;5014970;28;20056;-72
2022/04/26 06:21:12;;;;;;;9.05;3.97;;;9.00;99.90;;;;;;5013639;28;20125;-73
2022/04/26 06:23:38;;;;;;;8.30;3.72;;;9.20;99.90;;;;;;4997528;28;20042;-73
2022/04/26 06:26:04;;;;;;;12.73;3.95;;;9.20;99.90;;;;;;5013812;28;20029;-72
2022/04/26 06:28:30;;;;;;;10.75;3.90;;;9.20;99.90;;;;;;4997841;28;20045;-72
2022/04/26 06:30:56;;;;;;;11.48;3.83;;;9.20;99.90;;;;;;5014014;28;20045;-73
2022/04/26 06:33:21;;;;;;;10.85;4.32;;;9.30;99.90;;;;;;4997499;28;20042;-73
2022/04/26 06:35:47;;;;;;;10.13;3.80;;;9.40;99.90;;;;;;5013659;28;20133;-73
2022/04/26 06:38:12;;;;;;;10.30;4.38;;;9.40;99.90;;;;;;5013549;28;20064;-73
2022/04/26 06:40:38;;;;;;;10.65;4.22;;;9.30;99.90;;;;;;5013615;28;20057;-73
2022/04/26 06:43:04;;;;;;;12.15;4.65;;;9.30;99.90;;;;;;5013765;28;20371;-72
2022/04/26 06:45:29;;;;;;;15.13;4.15;;;9.20;99.90;;;;;;5013547;28;20036;-73
2022/04/26 06:47:55;;;;;;;9.50;3.72;;;9.20;99.90;;;;;;5013465;28;20452;-73
2022/04/26 06:50:22;;;;;;;10.75;4.43;;;9.30;99.90;;;;;;5013428;28;20045;-73
2022/04/26 06:52:47;;;;;;;7.88;4.05;;;9.30;99.90;;;;;;5013203;28;20034;-73
2022/04/26 06:55:13;;;;;;;11.95;4.15;;;9.10;99.90;;;;;;4997316;28;20111;-73
2022/04/26 06:57:40;;;;;;;12.38;3.88;;;9.20;99.90;;;;;;5013538;28;20037;-72
2022/04/26 07:00:09;;;;;;;8.98;3.45;;;9.10;99.90;;;;;;5013300;28;20104;-73
2022/04/26 07:02:35;;;;;;;11.10;3.58;;;9.10;99.90;;;;;;5013510;28;20386;-73
2022/04/26 07:05:01;;;;;;;8.05;3.47;;;9.30;99.90;;;;;;4996932;28;20041;-73
2022/04/26 07:07:27;;;;;;;8.02;3.65;;;9.40;99.90;;;;;;5013148;28;20029;-73
2022/04/26 07:09:52;;;;;;;13.45;3.75;;;9.50;99.90;;;;;;5013080;28;20434;-72
2022/04/26 07:12:18;;;;;;;9.57;3.33;;;9.80;99.90;;;;;;4996916;28;20041;-73
2022/04/26 07:14:43;;;;;;;9.20;3.42;;;10.00;99.90;;;;;;5012997;28;20041;-73
2022/04/26 07:17:10;;;;;;;9.85;3.40;;;10.10;99.90;;;;;;5013354;28;20389;-71
2022/04/26 07:19:35;;;;;;;10.77;3.88;;;10.20;99.90;;;;;;4996368;28;20552;-72
2022/04/26 07:22:05;;;;;;;9.93;3.30;;;10.30;99.90;;;;;;4996431;28;20077;-72
2022/04/26 07:24:31;;;;;;;6.80;2.40;;;10.50;99.90;;;;;;4996543;28;20474;-72
2022/04/26 07:26:57;;;;;;;10.60;3.08;;;10.50;99.90;;;;;;5013724;28;20487;-72
2022/04/26 07:29:22;;;;;;;9.13;2.60;;;10.50;99.90;;;;;;5007038;28;20038;-72
2022/04/26 07:31:48;;;;;;;9.15;3.30;;;10.60;99.90;;;;;;5026599;28;20037;-79
2022/04/26 07:34:23;;;;;;;8.57;2.70;;;10.60;99.90;;;;;;5032466;28;20041;-72
2022/04/26 07:36:50;;;;;;;8.18;2.20;;;10.60;99.90;;;;;;4997418;28;20076;-73
2022/04/26 07:39:17;;;;;;;8.45;2.72;;;10.70;99.90;;;;;;5012557;28;20056;-73
2022/04/26 07:41:45;;;;;;;9.45;2.92;;;10.90;99.90;;;;;;5030327;28;20498;-73
2022/04/26 07:44:11;;;;;;;6.32;2.30;;;11.20;99.90;;;;;;5016040;28;20034;-72
2022/04/26 07:46:37;;;;;;;9.38;2.67;;;11.30;99.90;;;;;;4999892;28;20117;-72
2022/04/26 07:49:05;;;;;;;10.68;2.65;;;11.10;99.90;;;;;;5012460;28;20534;-73
2022/04/26 07:51:31;;;;;;;11.82;2.63;;;11.00;99.90;;;;;;5027772;28;20033;-72
2022/04/26 07:53:57;;;;;;;8.93;2.70;;;10.90;99.90;;;;;;5032101;28;20533;-72
2022/04/26 07:56:23;;;;;;;6.57;2.63;;;10.90;99.90;;;;;;5001787;28;20122;-72
2022/04/26 07:58:48;;;;;;;7.07;2.40;;;10.80;99.90;;;;;;5012439;28;20034;-72
2022/04/26 08:01:14;;;;;;;8.68;3.22;;;10.80;99.90;;;;;;5012981;28;20500;-72
2022/04/26 08:03:39;;;;;;;7.95;2.70;;;10.80;99.90;;;;;;5031391;28;20450;-72
2022/04/26 08:06:05;;;;;;;8.02;2.63;;;10.80;99.90;;;;;;5021736;28;20075;-72
2022/04/26 08:08:30;;;;;;;8.40;2.50;;;10.90;99.90;;;;;;5012451;28;20038;-72
2022/04/26 08:10:58;;;;;;;7.20;2.92;;;11.20;99.90;;;;;;5013192;28;20034;-72
2022/04/26 08:13:23;;;;;;;7.47;3.13;;;11.20;99.90;;;;;;5013304;28;20523;-73
2022/04/26 08:15:49;;;;;;;8.05;2.55;;;11.30;99.90;;;;;;5025105;28;20116;-73
2022/04/26 08:18:15;;;;;;;9.45;2.58;;;11.50;99.90;;;;;;5012249;28;20545;-73
2022/04/26 08:20:41;;;;;;;8.02;2.63;;;11.70;99.90;;;;;;5013072;28;20053;-73
2022/04/26 08:23:07;;;;;;;7.72;2.80;;;11.80;99.90;;;;;;5029586;28;20119;-73
2022/04/26 08:28:17;;;;;;;9.95;2.90;;;12.10;99.90;;;;;;5016033;28;20065;-73
2022/04/26 08:30:43;;;;;;;7.90;2.60;;;11.90;99.90;;;;;;5017340;28;20072;-73
2022/04/26 08:33:09;;;;;;;7.05;2.78;;;11.80;99.90;;;;;;5006542;28;20029;-73
2022/04/26 08:35:35;;;;;;;5.65;2.47;;;11.90;99.90;;;;;;4990268;28;20034;-73
2022/04/26 08:38:01;;;;;;;8.02;2.75;;;12.00;99.90;;;;;;5014344;28;20042;-73
2022/04/26 08:40:26;;;;;;;9.65;2.65;;;11.90;99.90;;;;;;5009877;28;20057;-73
2022/04/26 08:42:52;;;;;;;7.00;2.58;;;11.80;99.90;;;;;;5019073;28;20128;-73
2022/04/26 08:45:21;;;;;;;7.10;2.85;;;11.70;99.90;;;;;;5008610;28;20045;-73
2022/04/26 08:53:20;;;;;;;7.35;2.97;;;11.70;99.90;;;;;;5007941;28;20042;-73
2022/04/26 08:55:49;;;;;;;8.45;2.90;;;11.60;99.90;;;;;;4998705;28;20050;-73
2022/04/26 08:58:15;;;;;;;9.55;2.97;;;11.40;99.90;;;;;;4995172;28;20537;-73
2022/04/26 09:01:18;;;;;;;7.03;2.75;;;11.40;99.90;;;;;;5008744;28;20037;-73
2022/04/26 09:03:59;;;;;;;8.10;2.72;;;11.50;99.90;;;;;;5030533;28;20413;-73
2022/04/26 09:06:34;;;;;;;9.98;3.05;;;11.40;99.90;;;;;;5010057;28;20548;-73
2022/04/26 09:09:08;;;;;;;8.98;2.70;;;11.40;99.90;;;;;;5000715;28;20124;-73
2022/04/26 09:11:35;;;;;;;9.00;3.13;;;11.50;99.90;;;;;;5014128;28;20395;-72
2022/04/26 09:14:03;;;;;;;8.18;2.75;;;11.60;99.90;;;;;;5014688;28;20079;-73
2022/04/26 09:16:29;;;;;;;6.85;2.80;;;11.80;99.90;;;;;;4998396;28;20037;-72
2022/04/26 09:18:58;;;;;;;7.63;2.72;;;11.80;99.90;;;;;;5014013;28;20076;-73
2022/04/26 09:21:29;;;;;;;7.18;2.53;;;11.80;99.90;;;;;;4998243;28;20422;-72
2022/04/26 09:24:00;;;;;;;8.05;2.80;;;11.60;99.90;;;;;;5014208;28;20123;-72
2022/04/26 09:26:39;;;;;;;7.38;2.70;;;11.60;99.90;;;;;;5004049;28;20036;-72
2022/04/26 09:29:06;;;;;;;8.30;2.72;;;11.50;99.90;;;;;;5017795;28;20034;-72
2022/04/26 09:31:40;;;;;;;6.53;2.60;;;11.70;99.90;;;;;;5013668;28;20101;-72
2022/04/26 09:34:11;;;;;;;7.28;2.58;;;12.00;99.90;;;;;;5018331;28;20068;-72
2022/04/26 09:36:48;;;;;;;9.30;2.70;;;12.00;99.90;;;;;;5013927;28;20048;-72
2022/04/26 09:39:18;;;;;;;9.95;2.90;;;11.90;99.90;;;;;;5033332;28;20049;-72
2022/04/26 09:41:51;;;;;;;9.27;2.95;;;11.80;99.90;;;;;;5021500;28;20073;-72
2022/04/26 09:44:17;;;;;;;7.85;2.60;;;11.80;99.90;;;;;;4995305;28;20060;-72
2022/04/26 09:46:43;;;;;;;8.13;2.88;;;11.70;99.90;;;;;;4995037;28;20042;-72
2022/04/26 09:49:10;;;;;;;8.18;3.42;;;11.80;99.90;;;;;;5004663;28;20504;-72
2022/04/26 09:51:36;;;;;;;9.35;3.00;;;12.00;99.90;;;;;;5030139;28;20042;-72
2022/04/26 09:54:03;;;;;;;8.00;3.15;;;12.10;98.50;;;;;;4997348;28;20034;-72
2022/04/26 09:56:31;;;;;;;8.10;3.40;;;12.40;99.90;;;;;;5013994;28;20053;-72
2022/04/26 09:58:59;;;;;;;8.70;3.25;;;12.70;99.90;;;;;;5006267;28;20042;-72
2022/04/26 10:01:34;;;;;;;7.30;2.83;;;12.90;99.90;;;;;;4999329;28;20084;-72
2022/04/26 10:04:03;;;;;;;12.35;2.80;;;13.30;99.90;;;;;;5013505;28;20108;-72
2022/04/26 10:06:50;;;;;;;6.97;2.88;;;13.50;94.80;;;;;;5013364;28;20037;-72
2022/04/26 10:09:16;;;;;;;7.85;2.78;;;13.40;96.00;;;;;;4997453;28;20038;-72
2022/04/26 10:11:42;;;;;;;6.53;2.50;;;13.50;97.00;;;;;;5013342;28;20561;-72
2022/04/26 10:14:09;;;;;;;5.45;2.50;;;13.40;94.40;;;;;;5013930;28;20517;-72
2022/04/26 10:16:36;;;;;;;6.90;2.97;;;13.00;91.70;;;;;;5001445;28;20052;-72
2022/04/26 10:19:06;;;;;;;6.68;2.72;;;12.90;95.90;;;;;;5013095;28;20117;-72
2022/04/26 10:21:38;;;;;;;6.97;2.60;;;12.90;94.50;;;;;;5012715;28;20100;-72
2022/04/26 10:24:16;;;;;;;7.13;2.63;;;13.10;94.70;;;;;;4997644;28;20045;-72
2022/04/26 10:26:42;;;;;;;7.22;2.95;;;13.40;95.70;;;;;;5013137;28;20038;-72
2022/04/26 10:29:07;;;;;;;9.73;2.97;;;13.50;97.70;;;;;;5008569;28;20057;-72
2022/04/26 10:31:44;;;;;;;10.95;3.53;;;13.40;96.60;;;;;;4997308;28;20045;-73
2022/04/26 10:34:27;;;;;;;6.72;2.80;;;13.30;95.40;;;;;;4991357;28;20065;-72
2022/04/26 10:37:13;;;;;;;7.47;2.92;;;13.20;96.40;;;;;;5010553;28;20042;-73
2022/04/26 10:39:38;;;;;;;9.23;2.85;;;13.10;94.80;;;;;;5012743;28;20454;-72
2022/04/26 10:42:16;;;;;;;7.97;3.28;;;13.40;97.30;;;;;;4996782;28;20084;-73
2022/04/26 10:44:48;;;;;;;6.25;2.60;;;13.50;92.50;;;;;;5011698;28;20042;-72
2022/04/26 10:47:20;;;;;;;8.10;2.63;;;13.70;91.60;;;;;;5013080;28;20045;-73
2022/04/26 10:49:47;;;;;;;7.37;3.10;;;13.80;95.80;;;;;;5008218;28;20072;-73
2022/04/26 10:52:13;;;;;;;6.82;3.15;;;14.00;95.00;;;;;;5013188;28;20285;-72
2022/04/26 10:54:45;;;;;;;6.80;2.67;;;14.00;93.00;;;;;;4996116;28;20041;-73
2022/04/26 10:57:11;;;;;;;8.65;3.17;;;13.60;90.50;;;;;;5012416;28;20077;-72
2022/04/26 10:59:41;;;;;;;5.95;2.80;;;13.30;91.80;;;;;;4996198;28;20459;-72
2022/04/26 11:02:14;;;;;;;6.75;2.72;;;13.40;91.60;;;;;;5011896;28;20038;-73
2022/04/26 11:04:40;;;;;;;8.95;2.70;;;13.50;92.80;;;;;;5012635;28;20075;-72
2022/04/26 11:07:16;;;;;;;7.45;2.80;;;13.60;90.10;;;;;;4987402;28;20376;-72
2022/04/26 11:09:49;;;;;;;6.00;2.40;;;13.80;94.50;;;;;;4989341;28;20050;-72
2022/04/26 11:12:18;;;;;;;6.95;3.00;;;14.00;93.50;;;;;;5011170;28;20085;-72
2022/04/26 11:14:45;;;;;;;7.30;2.58;;;14.10;92.60;;;;;;4996444;28;20081;-72
2022/04/26 11:17:10;;;;;;;6.68;2.60;;;13.70;85.10;;;;;;4995731;28;20528;-72
2022/04/26 11:19:38;;;;;;;8.77;2.63;;;13.30;90.20;;;;;;4995336;28;20058;-71
2022/04/26 11:22:08;;;;;;;6.70;2.55;;;13.00;80.40;;;;;;4998826;28;20046;-72
2022/04/26 11:30:07;;;;;;;6.40;2.50;;;13.50;95.00;;;;;;5011889;28;20069;-72
2022/04/26 11:32:35;;;;;;;6.35;2.85;;;13.70;90.20;;;;;;4996241;28;20368;-72
2022/04/26 11:35:01;;;;;;;9.25;3.05;;;13.60;88.30;;;;;;5008957;28;20049;-71
2022/04/26 11:37:27;;;;;;;8.57;3.08;;;13.70;92.70;;;;;;5030116;28;20122;-71
2022/04/26 11:39:53;;;;;;;7.15;2.72;;;13.60;89.40;;;;;;5012009;28;20038;-71
2022/04/26 11:42:19;;;;;;;7.05;2.47;;;13.30;90.50;;;;;;4993540;28;20049;-71
2022/04/26 11:44:58;;;;;;;7.90;2.50;;;13.40;93.20;;;;;;5001733;28;20117;-71
2022/04/26 11:47:46;;;;;;;10.82;2.55;;;13.40;93.00;;;;;;5010649;28;20440;-72
2022/04/26 11:50:20;;;;;;;6.38;2.47;;;13.60;96.20;;;;;;5011317;28;20065;-72
2022/04/26 11:52:48;;;;;;;8.20;2.70;;;13.90;92.00;;;;;;5012094;28;20049;-72
2022/04/26 11:55:22;;;;;;;5.47;2.38;;;14.10;91.10;;;;;;5011141;28;20080;-72
2022/04/26 11:57:48;;;;;;;7.05;2.60;;;14.20;90.70;;;;;;5004739;28;20044;-72
2022/04/26 12:00:16;;;;;;;6.68;2.70;;;14.30;84.70;;;;;;5005090;28;20037;-72
2022/04/26 12:02:43;;;;;;;7.13;2.65;;;14.00;79.40;;;;;;5012005;28;20490;-72
2022/04/26 12:05:09;;;;;;;6.15;2.60;;;13.90;86.10;;;;;;4992179;28;20038;-72
2022/04/26 12:07:35;;;;;;;8.27;2.75;;;14.00;84.80;;;;;;5000412;28;20038;-71
2022/04/26 12:10:01;;;;;;;8.40;2.80;;;13.60;83.80;;;;;;5011830;28;20404;-71
2022/04/26 12:12:27;;;;;;;9.02;2.90;;;13.30;83.10;;;;;;4992479;28;20046;-71
2022/04/26 12:14:55;;;;;;;8.60;2.80;;;13.20;81.20;;;;;;4992679;28;20073;-71
2022/04/26 12:17:22;;;;;;;6.72;2.50;;;13.20;84.40;;;;;;4992112;28;20034;-71
2022/04/26 12:19:51;;;;;;;8.10;3.10;;;13.40;92.50;;;;;;4991794;28;20545;-71
2022/04/26 12:22:25;;;;;;;6.97;2.75;;;13.50;91.80;;;;;;5011940;28;20034;-71
2022/04/26 12:24:51;;;;;;;6.72;2.92;;;13.80;90.40;;;;;;5011202;28;20049;-71
2022/04/26 12:27:26;;;;;;;7.57;2.83;;;13.80;87.40;;;;;;5011681;28;20133;-71
2022/04/26 12:29:53;;;;;;;6.25;2.80;;;13.50;82.40;;;;;;5010371;28;20034;-71
2022/04/26 12:32:23;;;;;;;9.55;2.55;;;13.50;91.00;;;;;;5022989;28;20042;-71
2022/04/26 12:34:50;;;;;;;5.95;2.55;;;13.40;92.20;;;;;;5011910;28;20046;-71
2022/04/26 12:37:20;;;;;;;7.10;2.40;;;13.60;91.50;;;;;;4985850;28;20038;-71
2022/04/26 12:39:49;;;;;;;7.07;2.80;;;13.60;90.60;;;;;;5008270;28;20441;-71
2022/04/26 12:42:34;;;;;;;7.35;2.67;;;13.50;79.80;;;;;;5009829;28;20117;-71
2022/04/26 12:45:03;;;;;;;6.65;2.75;;;13.50;86.20;;;;;;5008106;28;20030;-71
2022/04/26 12:50:33;;;;;;;8.02;2.70;;;13.60;88.80;;;;;;5019109;28;20050;-71
2022/04/26 12:53:00;;;;;;;6.40;2.70;;;13.70;90.30;;;;;;5031637;28;20129;-71
2022/04/26 12:55:40;;;;;;;5.90;2.78;;;13.80;86.60;;;;;;5031447;28;20072;-71
2022/04/26 12:58:10;;;;;;;6.38;2.35;;;13.80;83.90;;;;;;5031376;28;20516;-71
2022/04/26 13:00:42;;;;;;;7.90;3.17;;;13.70;79.40;;;;;;4998922;28;20118;-72
2022/04/26 13:03:09;;;;;;;7.43;2.90;;;13.80;83.70;;;;;;5011198;28;20077;-72
2022/04/26 13:05:45;;;;;;;6.13;2.50;;;13.80;87.40;;;;;;5011621;28;20489;-72
2022/04/26 13:08:12;;;;;;;5.68;2.55;;;13.90;82.20;;;;;;4996067;28;20042;-72
2022/04/26 13:10:40;;;;;;;7.07;2.63;;;14.00;82.90;;;;;;4999112;28;20490;-72
2022/04/26 13:13:06;;;;;;;7.68;2.83;;;14.10;84.50;;;;;;4998992;28;20046;-72
2022/04/26 13:15:32;;;;;;;6.25;2.50;;;13.90;78.30;;;;;;4998884;28;20044;-73
2022/04/26 13:17:59;;;;;;;7.22;2.45;;;13.80;79.60;;;;;;5015205;28;20038;-73
2022/04/26 13:20:25;;;;;;;5.93;2.55;;;13.50;85.10;;;;;;5009971;28;20469;-73
2022/04/26 13:22:51;;;;;;;5.60;2.42;;;13.60;83.60;;;;;;5015204;28;20041;-73
2022/04/26 13:25:16;;;;;;;5.80;2.20;;;13.60;85.90;;;;;;5015104;28;20087;-73
2022/04/26 13:27:42;;;;;;;8.25;2.47;;;13.70;87.50;;;;;;5014950;28;20038;-73
2022/04/26 13:30:08;;;;;;;7.53;3.05;;;13.80;90.40;;;;;;5014963;28;20038;-72
2022/04/26 13:32:34;;;;;;;6.03;2.10;;;13.80;83.40;;;;;;5014920;28;20041;-72
2022/04/26 13:35:00;;;;;;;5.97;2.60;;;13.70;78.30;;;;;;5015072;28;20038;-72
2022/04/26 13:37:26;;;;;;;7.20;3.00;;;13.80;80.80;;;;;;4988905;28;20045;-72
2022/04/26 13:39:53;;;;;;;7.93;2.92;;;13.90;83.40;;;;;;4995202;28;20491;-72
2022/04/26 13:42:19;;;;;;;6.90;2.53;;;13.90;86.00;;;;;;4995227;28;20057;-72
2022/04/26 13:44:45;;;;;;;8.48;3.40;;;13.90;90.00;;;;;;4995459;28;20404;-72
2022/04/26 13:47:11;;;;;;;6.43;2.40;;;13.90;80.90;;;;;;4995302;28;20046;-72
2022/04/26 13:49:37;;;;;;;7.40;2.60;;;14.00;87.90;;;;;;4979120;28;20038;-72
2022/04/26 13:52:04;;;;;;;7.35;2.63;;;14.00;87.60;;;;;;4978761;28;20495;-72
2022/04/26 13:54:29;;;;;;;7.38;2.33;;;14.00;77.80;;;;;;4996714;28;20037;-72
2022/04/26 13:56:56;;;;;;;7.53;2.85;;;14.30;90.20;;;;;;5014366;28;20054;-75
2022/04/26 13:59:22;;;;;;;6.43;2.30;;;14.20;87.30;;;;;;4998031;28;20084;-72
2022/04/26 14:01:49;;;;;;;7.15;2.60;;;14.20;88.50;;;;;;5015148;28;20096;-72
2022/04/26 14:04:15;;;;;;;5.40;2.50;;;14.10;77.60;;;;;;5027535;28;20044;-72
2022/04/26 14:06:41;;;;;;;6.03;2.42;;;14.00;73.00;;;;;;5034089;28;20042;-72
2022/04/26 14:09:07;;;;;;;7.10;2.60;;;14.10;77.90;;;;;;5030948;28;20412;-72
2022/04/26 14:11:33;;;;;;;7.18;2.35;;;14.00;76.90;;;;;;5013191;28;20046;-72
2022/04/26 14:22:11;;;;;;;5.57;2.30;;;14.40;79.50;;;;;;4998810;28;20498;-72
2022/04/26 14:24:38;;;;;;;6.10;2.67;;;14.50;82.90;;;;;;5011701;28;20080;-72
2022/04/26 14:27:04;;;;;;;6.70;2.80;;;14.50;81.40;;;;;;5013442;28;20052;-72
2022/04/26 14:29:29;;;;;;;6.07;2.80;;;14.50;80.20;;;;;;5014288;28;20457;-72
2022/04/26 14:31:55;;;;;;;8.00;2.70;;;14.50;84.40;;;;;;5014036;28;20549;-72
2022/04/26 14:34:22;;;;;;;6.70;2.95;;;14.60;79.30;;;;;;5029254;28;20088;-72
2022/04/26 14:36:48;;;;;;;8.23;2.90;;;14.60;80.10;;;;;;5007886;28;20111;-72
2022/04/26 14:39:15;;;;;;;6.68;3.03;;;14.70;90.00;;;;;;5013184;28;20053;-72
2022/04/26 14:41:41;;;;;;;5.95;2.50;;;14.70;80.00;;;;;;5016633;28;20524;-72
2022/04/26 14:44:07;;;;;;;7.85;2.80;;;14.80;85.10;;;;;;4997032;28;20046;-72
2022/04/26 14:46:33;;;;;;;9.77;3.42;;;14.80;80.40;;;;;;5012773;28;20042;-72
2022/04/26 14:48:59;;;;;;;7.70;3.15;;;14.70;75.60;;;;;;5012976;28;20038;-72
2022/04/26 14:51:24;;;;;;;8.77;3.15;;;14.70;75.20;;;;;;5013380;28;20490;-72
2022/04/26 14:53:50;;;;;;;6.30;2.90;;;14.80;84.10;;;;;;5014244;28;20046;-71
2022/04/26 14:56:16;;;;;;;8.00;2.92;;;14.70;73.70;;;;;;5012895;28;20050;-72
2022/04/26 14:58:42;;;;;;;7.60;3.20;;;14.60;78.50;;;;;;5013244;28;20505;-72
2022/04/26 15:01:07;;;;;;;7.22;2.90;;;14.60;82.50;;;;;;5012887;28;20123;-72
2022/04/26 15:03:33;;;;;;;7.07;3.10;;;14.60;79.40;;;;;;5012827;28;20050;-72
2022/04/26 15:05:59;;;;;;;8.80;2.50;;;14.70;84.80;;;;;;5012909;28;20566;-72
2022/04/26 15:11:10;;;;;;;6.10;2.50;;;14.70;79.80;;;;;;5019973;28;20042;-72
2022/04/26 15:16:38;;;;;;;6.43;2.92;;;14.30;78.80;;;;;;5012865;28;20132;-72
2022/04/26 15:19:09;;;;;;;6.93;2.65;;;14.00;75.70;;;;;;5014336;28;20517;-71
2022/04/26 15:21:35;;;;;;;7.05;2.70;;;13.90;79.50;;;;;;5008959;28;20607;-71
2022/04/26 15:24:01;;;;;;;6.03;2.50;;;14.00;87.30;;;;;;5004115;28;20046;-72
2022/04/26 15:26:27;;;;;;;7.65;2.92;;;13.90;87.90;;;;;;4994203;28;20030;-72
2022/04/26 15:28:53;;;;;;;9.05;2.60;;;13.60;79.60;;;;;;5011134;28;20045;-72
2022/04/26 15:31:20;;;;;;;6.20;2.63;;;13.60;82.30;;;;;;5011962;28;20084;-72
2022/04/26 15:33:47;;;;;;;6.40;2.50;;;13.50;84.60;;;;;;5010217;28;20072;-71
2022/04/26 15:36:14;;;;;;;6.20;2.50;;;13.30;84.50;;;;;;5011094;28;20061;-71
2022/04/26 15:38:40;;;;;;;7.45;2.75;;;13.40;90.70;;;;;;5008336;28;20410;-72
2022/04/26 15:41:06;;;;;;;7.97;3.08;;;13.20;86.50;;;;;;5007118;28;20117;-71
2022/04/26 15:43:36;;;;;;;5.80;2.72;;;13.00;84.70;;;;;;5001556;28;20042;-71
2022/04/26 15:46:04;;;;;;;5.90;2.70;;;13.10;89.60;;;;;;5006717;28;20383;-71
2022/04/26 15:48:30;;;;;;;7.82;2.78;;;13.00;87.70;;;;;;5004810;28;20042;-71
2022/04/26 15:50:56;;;;;;;5.88;2.47;;;13.20;92.90;;;;;;5011701;28;20145;-71
2022/04/26 15:53:22;;;;;;;9.07;2.60;;;13.20;91.20;;;;;;4992010;28;20466;-71
2022/04/26 15:55:48;;;;;;;7.40;2.55;;;12.80;81.70;;;;;;5035572;28;20069;-71
2022/04/26 15:58:14;;;;;;;6.20;2.40;;;12.90;90.10;;;;;;5007515;28;20042;-72
2022/04/26 16:00:40;;;;;;;8.25;2.42;;;12.90;87.90;;;;;;4994323;28;20412;-77
2022/04/26 16:03:07;;;;;;;6.90;2.38;;;13.00;91.40;;;;;;4995932;28;20125;-72
2022/04/26 16:05:35;;;;;;;10.73;2.67;;;13.00;88.40;;;;;;4991849;28;20073;-72
2022/04/26 16:08:00;;;;;;;7.30;2.63;;;12.90;89.10;;;;;;5003325;28;20433;-72
2022/04/26 16:21:25;;;;;;;7.70;2.60;;;12.60;93.80;;;;;;5001798;28;20054;-72
2022/04/26 16:23:57;;;;;;;6.72;2.70;;;12.50;93.20;;;;;;4981420;28;20132;-72
2022/04/26 16:26:24;;;;;;;8.43;2.83;;;12.60;91.80;;;;;;4992833;28;20038;-72
2022/04/26 16:28:53;;;;;;;8.20;2.55;;;12.60;93.10;;;;;;4996635;28;20379;-72
2022/04/26 16:31:29;;;;;;;8.82;2.80;;;12.60;94.10;;;;;;5005320;28;20038;-72
2022/04/26 16:33:59;;;;;;;5.38;2.58;;;12.50;92.50;;;;;;4998474;28;20046;-72
2022/04/26 16:36:25;;;;;;;7.53;2.60;;;12.50;91.30;;;;;;4995640;28;20491;-72
2022/04/26 16:38:54;;;;;;;5.82;2.78;;;12.40;90.30;;;;;;4998758;28;20039;-72
2022/04/26 16:41:21;;;;;;;5.90;2.30;;;12.50;94.40;;;;;;4995909;28;20096;-72
2022/04/26 16:43:47;;;;;;;5.75;2.40;;;12.40;93.30;;;;;;4996989;28;20363;-72
2022/04/26 16:46:17;;;;;;;6.78;2.70;;;12.40;92.20;;;;;;5004713;28;20085;-72
2022/04/26 16:48:45;;;;;;;8.05;2.70;;;12.30;92.00;;;;;;5014348;28;20057;-72
2022/04/26 16:51:11;;;;;;;7.65;2.78;;;12.30;90.60;;;;;;4998915;28;20100;-72
2022/04/26 16:53:36;;;;;;;7.10;2.70;;;12.30;92.50;;;;;;5009717;28;20066;-72
2022/04/26 16:56:03;;;;;;;7.10;2.80;;;12.20;92.40;;;;;;4996130;28;20038;-72
2022/04/26 16:58:30;;;;;;;7.15;2.35;;;12.00;92.00;;;;;;5000841;28;20041;-72
2022/04/26 17:00:56;;;;;;;6.65;2.40;;;12.10;94.00;;;;;;5026586;28;20132;-72
2022/04/26 17:03:22;;;;;;;7.38;2.67;;;12.10;92.50;;;;;;4988467;28;20070;-72
2022/04/26 17:05:48;;;;;;;9.00;2.92;;;12.10;94.90;;;;;;4998741;28;20077;-72
2022/04/26 17:08:17;;;;;;;7.60;2.72;;;12.10;94.00;;;;;;4998655;28;20073;-72
2022/04/26 17:10:43;;;;;;;5.80;2.55;;;12.00;93.90;;;;;;4986804;28;20394;-72